Observations de surface / France / LFRS

Québec | Canada | États-Unis | France | UK | Europe | Ailleurs

Affichage: Infos & localisation pour LFRS | Aide pour décoder les METARs

LFRS NANTES/ATLANTIQUE -- FR
Raw surface observations for station LFRS
LFRS 211700Z AUTO 07007KT 7000 NSC 04/M03 Q1024 NOSIG=
LFRS 211630Z AUTO 05005KT 7000 NSC 04/M03 Q1023 NOSIG=
LFRS 211600Z AUTO 05006KT 020V080 7000 NSC 05/M03 Q1023 NOSIG=
LFRS 211530Z AUTO 06005KT 360V090 8000 NSC 06/M03 Q1023 NOSIG=
LFRS 211500Z AUTO 06005KT 7000 NSC 06/M02 Q1023 NOSIG=
LFRS 211430Z AUTO 04006KT 360V070 7000 NSC 06/M01 Q1023 NOSIG=
LFRS 211400Z AUTO 06005KT 010V090 6000 NSC 05/M02 Q1024 NOSIG=
LFRS 211330Z AUTO 07005KT 6000 NSC 05/M02 Q1024 NOSIG=
LFRS 211300Z AUTO 05005KT 360V080 6000 NSC 04/M02 Q1024 NOSIG=
LFRS 211230Z AUTO 04004KT 350V080 5000 HZ NSC 04/M03 Q1025 NOSIG=
LFRS 211200Z AUTO 06004KT 020V120 5000 HZ NSC 03/M02 Q1025 NOSIG=
LFRS 211130Z AUTO 07003KT 020V100 5000 HZ NSC 02/M03 Q1025 NOSIG=
LFRS 211100Z AUTO 04004KT 010V070 5000 BR NSC 01/M03 Q1025 NOSIG=
LFRS 211030Z AUTO 06006KT 020V080 4900 BR NSC M00/M04 Q1025 BECMG 8000 BR=
LFRS 211000Z AUTO 06006KT 4300 BR NSC M01/M04 Q1026 BECMG 8000 BR=
LFRS 210930Z AUTO 06005KT 010V080 4000 BR NSC M02/M05 Q1025 BECMG 8000 NSW=
LFRS 210900Z AUTO 04004KT 010V070 3300 BR NSC M03/M05 Q1025 BECMG 8000 NSW=
LFRS 210830Z AUTO VRB03KT 3100 BR NSC M04/M05 Q1025 BECMG 8000 NSW=
LFRS 210800Z AUTO 05004KT 010V070 3100 BR NSC M05/M06 Q1025 BECMG 8000 NSW=
LFRS 210730Z AUTO 05004KT 010V080 4100 BR NSC M04/M06 Q1025 BECMG 8000 NSW=
LFRS 210700Z AUTO 04004KT 010V070 4300 BR NSC M05/M06 Q1025 NOSIG=
LFRS 210630Z AUTO 04004KT 010V080 4500 BR NSC M05/M06 Q1025 NOSIG=
LFRS 210600Z AUTO 05003KT 020V080 4400 BR NSC M05/M06 Q1025 NOSIG=
LFRS 210530Z AUTO 04003KT 010V070 4500 BR NSC M05/M06 Q1025 NOSIG=
LFRS 210500Z AUTO VRB03KT 4400 BR NSC M07/M08 Q1025 NOSIG=
LFRS 210430Z AUTO VRB02KT 4500 BR NSC M06/M08 Q1025 NOSIG=
LFRS 210400Z AUTO VRB02KT 4600 BR NSC M06/M07 Q1025 NOSIG=
LFRS 210330Z AUTO 05002KT 4600 BR NSC M05/M06 Q1025 NOSIG=
LFRS 210300Z AUTO VRB01KT 4600 BR NSC M06/M07 Q1026 NOSIG=
LFRS 210230Z AUTO VRB02KT 4900 BR NSC M04/M06 Q1026 NOSIG=
LFRS 210200Z AUTO VRB01KT 5000 BR NSC M04/M05 Q1026 NOSIG=
LFRS 210130Z AUTO VRB03KT 5000 BR NSC M03/M05 Q1026 NOSIG=
LFRS 210100Z AUTO 06004KT 5000 BR NSC M03/M05 Q1026 NOSIG=
LFRS 210030Z AUTO 06004KT 5000 BR NSC M03/M05 Q1026 NOSIG=
LFRS 210000Z AUTO 06004KT 5000 BR NSC M03/M05 Q1026 NOSIG=
LFRS 202330Z AUTO 06005KT 5000 BR NSC M03/M05 Q1026 NOSIG=
LFRS 202300Z AUTO 06004KT 5000 BR NSC M03/M05 Q1027 NOSIG=
LFRS 202230Z AUTO 06004KT 5000 BR NSC M02/M05 Q1027 NOSIG=
LFRS 202200Z AUTO 06004KT 5000 BR NSC M02/M05 Q1027 NOSIG=
LFRS 202130Z AUTO 06006KT 5000 BR NSC M02/M05 Q1027 NOSIG=
LFRS 202100Z AUTO 06005KT 5000 BR NSC M02/M04 Q1027 NOSIG=
LFRS 202030Z AUTO 06005KT 5000 BR NSC M02/M04 Q1027 NOSIG=
LFRS 202000Z AUTO 06005KT 5000 BR NSC M01/M04 Q1027 NOSIG=
LFRS 201930Z AUTO 06004KT 5000 BR NSC M01/M04 Q1027 NOSIG=
LFRS 201900Z AUTO 05004KT 010V080 5000 BR NSC M01/M04 Q1027 NOSIG=
LFRS 201830Z AUTO 07005KT 5000 BR NSC M01/M04 Q1027 NOSIG=
LFRS 201800Z AUTO 07004KT 6000 NSC M01/M04 Q1027 NOSIG=
LFRS 201730Z AUTO 07003KT 6000 NSC M01/M04 Q1027 NOSIG=
LFRS 201700Z AUTO 07006KT 6000 NSC 00/M04 Q1027 NOSIG=